sensor_id;sensor_type;location;lat;lon;timestamp;P1;durP1;ratioP1;P2;durP2;ratioP2
6928;SDS011;3504;52.616;13.238;2022-12-29T00:00:01;3.83;;;2.73;;
6928;SDS011;3504;52.616;13.238;2022-12-29T00:05:12;3.73;;;2.13;;
6928;SDS011;3504;52.616;13.238;2022-12-29T00:10:13;6.90;;;2.73;;
6928;SDS011;3504;52.616;13.238;2022-12-29T00:15:13;2.73;;;2.53;;
6928;SDS011;3504;52.616;13.238;2022-12-29T00:20:33;4.40;;;2.60;;
6928;SDS011;3504;52.616;13.238;2022-12-29T00:25:54;3.90;;;2.77;;
6928;SDS011;3504;52.616;13.238;2022-12-29T00:31:14;3.77;;;2.37;;
6928;SDS011;3504;52.616;13.238;2022-12-29T00:36:37;3.13;;;2.50;;
6928;SDS011;3504;52.616;13.238;2022-12-29T00:41:40;3.90;;;2.43;;
6928;SDS011;3504;52.616;13.238;2022-12-29T00:46:59;2.60;;;2.40;;
6928;SDS011;3504;52.616;13.238;2022-12-29T00:52:07;3.00;;;2.57;;
6928;SDS011;3504;52.616;13.238;2022-12-29T00:57:10;3.53;;;2.43;;
6928;SDS011;3504;52.616;13.238;2022-12-29T01:02:12;3.33;;;2.40;;
6928;SDS011;3504;52.616;13.238;2022-12-29T01:07:12;3.83;;;2.60;;
6928;SDS011;3504;52.616;13.238;2022-12-29T01:12:13;5.83;;;2.73;;
6928;SDS011;3504;52.616;13.238;2022-12-29T01:17:15;2.83;;;2.60;;
6928;SDS011;3504;52.616;13.238;2022-12-29T01:22:15;3.07;;;2.73;;
6928;SDS011;3504;52.616;13.238;2022-12-29T01:27:16;5.83;;;2.50;;
6928;SDS011;3504;52.616;13.238;2022-12-29T01:32:16;4.73;;;2.40;;
6928;SDS011;3504;52.616;13.238;2022-12-29T01:37:16;3.97;;;2.33;;
6928;SDS011;3504;52.616;13.238;2022-12-29T01:42:18;2.70;;;2.50;;
6928;SDS011;3504;52.616;13.238;2022-12-29T01:47:24;3.73;;;2.50;;
6928;SDS011;3504;52.616;13.238;2022-12-29T01:52:31;4.10;;;2.40;;
6928;SDS011;3504;52.616;13.238;2022-12-29T01:57:37;5.00;;;2.73;;
6928;SDS011;3504;52.616;13.238;2022-12-29T02:02:43;4.40;;;3.17;;
6928;SDS011;3504;52.616;13.238;2022-12-29T02:07:47;4.00;;;2.70;;
6928;SDS011;3504;52.616;13.238;2022-12-29T02:12:51;5.20;;;2.60;;
6928;SDS011;3504;52.616;13.238;2022-12-29T02:29:09;2.60;;;2.40;;
6928;SDS011;3504;52.616;13.238;2022-12-29T02:34:57;6.10;;;2.60;;
6928;SDS011;3504;52.616;13.238;2022-12-29T02:40:25;3.47;;;2.20;;
6928;SDS011;3504;52.616;13.238;2022-12-29T02:45:43;4.40;;;2.73;;
6928;SDS011;3504;52.616;13.238;2022-12-29T02:51:07;2.73;;;2.47;;
6928;SDS011;3504;52.616;13.238;2022-12-29T02:56:16;3.93;;;2.20;;
6928;SDS011;3504;52.616;13.238;2022-12-29T03:01:21;5.23;;;2.50;;
6928;SDS011;3504;52.616;13.238;2022-12-29T03:06:35;2.53;;;2.10;;
6928;SDS011;3504;52.616;13.238;2022-12-29T03:11:59;3.73;;;2.53;;
6928;SDS011;3504;52.616;13.238;2022-12-29T03:18:04;2.83;;;2.07;;
6928;SDS011;3504;52.616;13.238;2022-12-29T03:23:13;3.00;;;2.50;;
6928;SDS011;3504;52.616;13.238;2022-12-29T03:28:22;3.87;;;2.43;;
6928;SDS011;3504;52.616;13.238;2022-12-29T03:33:28;3.13;;;2.20;;
6928;SDS011;3504;52.616;13.238;2022-12-29T03:43:46;2.80;;;2.20;;
6928;SDS011;3504;52.616;13.238;2022-12-29T03:48:47;2.50;;;2.00;;
6928;SDS011;3504;52.616;13.238;2022-12-29T03:53:48;3.10;;;1.80;;
6928;SDS011;3504;52.616;13.238;2022-12-29T03:58:48;3.60;;;2.33;;
6928;SDS011;3504;52.616;13.238;2022-12-29T04:03:54;2.93;;;1.90;;
6928;SDS011;3504;52.616;13.238;2022-12-29T04:08:55;3.83;;;2.30;;
6928;SDS011;3504;52.616;13.238;2022-12-29T04:13:55;1.80;;;1.63;;
6928;SDS011;3504;52.616;13.238;2022-12-29T04:18:58;3.40;;;2.20;;
6928;SDS011;3504;52.616;13.238;2022-12-29T04:23:59;2.93;;;2.10;;
6928;SDS011;3504;52.616;13.238;2022-12-29T04:29:00;2.23;;;1.90;;
6928;SDS011;3504;52.616;13.238;2022-12-29T04:34:23;3.23;;;1.87;;
6928;SDS011;3504;52.616;13.238;2022-12-29T04:39:24;2.60;;;2.10;;
6928;SDS011;3504;52.616;13.238;2022-12-29T04:44:26;3.43;;;1.80;;
6928;SDS011;3504;52.616;13.238;2022-12-29T04:49:53;2.60;;;1.87;;
6928;SDS011;3504;52.616;13.238;2022-12-29T04:55:12;3.00;;;2.10;;
6928;SDS011;3504;52.616;13.238;2022-12-29T05:00:14;2.47;;;2.00;;
6928;SDS011;3504;52.616;13.238;2022-12-29T05:05:15;2.50;;;2.20;;
6928;SDS011;3504;52.616;13.238;2022-12-29T05:10:21;3.33;;;2.30;;
6928;SDS011;3504;52.616;13.238;2022-12-29T05:15:25;2.00;;;1.80;;
6928;SDS011;3504;52.616;13.238;2022-12-29T05:20:25;2.20;;;2.00;;
6928;SDS011;3504;52.616;13.238;2022-12-29T05:25:26;5.63;;;2.00;;
6928;SDS011;3504;52.616;13.238;2022-12-29T05:30:50;4.23;;;2.30;;
6928;SDS011;3504;52.616;13.238;2022-12-29T05:35:52;3.37;;;1.90;;
6928;SDS011;3504;52.616;13.238;2022-12-29T05:40:53;4.17;;;2.30;;
6928;SDS011;3504;52.616;13.238;2022-12-29T05:46:12;3.97;;;2.30;;
6928;SDS011;3504;52.616;13.238;2022-12-29T05:51:31;3.73;;;2.10;;
6928;SDS011;3504;52.616;13.238;2022-12-29T05:56:32;2.33;;;2.00;;
6928;SDS011;3504;52.616;13.238;2022-12-29T06:01:33;4.37;;;2.33;;
6928;SDS011;3504;52.616;13.238;2022-12-29T06:06:34;2.57;;;2.10;;
6928;SDS011;3504;52.616;13.238;2022-12-29T06:11:35;3.57;;;2.10;;
6928;SDS011;3504;52.616;13.238;2022-12-29T06:16:36;3.07;;;2.10;;
6928;SDS011;3504;52.616;13.238;2022-12-29T06:21:42;2.77;;;1.93;;
6928;SDS011;3504;52.616;13.238;2022-12-29T06:26:43;2.80;;;1.70;;
6928;SDS011;3504;52.616;13.238;2022-12-29T06:31:44;2.43;;;1.70;;
6928;SDS011;3504;52.616;13.238;2022-12-29T06:36:49;3.80;;;2.53;;
6928;SDS011;3504;52.616;13.238;2022-12-29T06:41:51;3.97;;;2.00;;
6928;SDS011;3504;52.616;13.238;2022-12-29T06:47:09;2.83;;;1.97;;
6928;SDS011;3504;52.616;13.238;2022-12-29T06:52:10;2.80;;;2.00;;
6928;SDS011;3504;52.616;13.238;2022-12-29T06:57:10;3.53;;;2.03;;
6928;SDS011;3504;52.616;13.238;2022-12-29T07:02:11;3.70;;;1.90;;
6928;SDS011;3504;52.616;13.238;2022-12-29T07:07:12;3.60;;;1.70;;
6928;SDS011;3504;52.616;13.238;2022-12-29T07:12:12;2.93;;;1.83;;
6928;SDS011;3504;52.616;13.238;2022-12-29T07:17:13;2.33;;;1.70;;
6928;SDS011;3504;52.616;13.238;2022-12-29T07:22:13;2.07;;;1.70;;
6928;SDS011;3504;52.616;13.238;2022-12-29T07:27:14;2.00;;;1.80;;
6928;SDS011;3504;52.616;13.238;2022-12-29T07:32:15;1.70;;;1.50;;
6928;SDS011;3504;52.616;13.238;2022-12-29T07:37:15;2.20;;;1.80;;
6928;SDS011;3504;52.616;13.238;2022-12-29T07:42:16;1.60;;;1.50;;
6928;SDS011;3504;52.616;13.238;2022-12-29T07:47:22;2.30;;;2.00;;
6928;SDS011;3504;52.616;13.238;2022-12-29T07:52:23;4.60;;;1.87;;
6928;SDS011;3504;52.616;13.238;2022-12-29T07:57:23;2.20;;;1.53;;
6928;SDS011;3504;52.616;13.238;2022-12-29T08:02:24;1.80;;;1.70;;
6928;SDS011;3504;52.616;13.238;2022-12-29T08:07:26;3.33;;;2.00;;
6928;SDS011;3504;52.616;13.238;2022-12-29T08:12:26;2.43;;;1.80;;
6928;SDS011;3504;52.616;13.238;2022-12-29T08:17:27;1.67;;;1.50;;
6928;SDS011;3504;52.616;13.238;2022-12-29T08:22:27;1.70;;;1.60;;
6928;SDS011;3504;52.616;13.238;2022-12-29T08:27:28;2.90;;;1.90;;
6928;SDS011;3504;52.616;13.238;2022-12-29T08:32:28;2.00;;;1.80;;
6928;SDS011;3504;52.616;13.238;2022-12-29T08:37:29;2.90;;;1.70;;
6928;SDS011;3504;52.616;13.238;2022-12-29T08:42:30;1.77;;;1.67;;
6928;SDS011;3504;52.616;13.238;2022-12-29T08:47:31;2.80;;;1.67;;
6928;SDS011;3504;52.616;13.238;2022-12-29T08:52:32;2.77;;;1.70;;
6928;SDS011;3504;52.616;13.238;2022-12-29T08:57:32;3.03;;;2.00;;
6928;SDS011;3504;52.616;13.238;2022-12-29T09:02:46;2.90;;;1.93;;
6928;SDS011;3504;52.616;13.238;2022-12-29T09:07:46;1.80;;;1.60;;
6928;SDS011;3504;52.616;13.238;2022-12-29T09:12:47;3.80;;;1.90;;
6928;SDS011;3504;52.616;13.238;2022-12-29T09:17:47;2.40;;;1.80;;
6928;SDS011;3504;52.616;13.238;2022-12-29T09:22:48;1.77;;;1.63;;
6928;SDS011;3504;52.616;13.238;2022-12-29T09:27:49;2.43;;;1.60;;
6928;SDS011;3504;52.616;13.238;2022-12-29T09:32:53;1.87;;;1.60;;
6928;SDS011;3504;52.616;13.238;2022-12-29T09:37:53;3.13;;;2.07;;
6928;SDS011;3504;52.616;13.238;2022-12-29T09:42:59;3.13;;;1.90;;
6928;SDS011;3504;52.616;13.238;2022-12-29T09:48:29;3.23;;;1.50;;
6928;SDS011;3504;52.616;13.238;2022-12-29T09:53:38;2.17;;;1.53;;
6928;SDS011;3504;52.616;13.238;2022-12-29T10:04:13;1.83;;;1.30;;
6928;SDS011;3504;52.616;13.238;2022-12-29T10:09:20;3.67;;;1.43;;
6928;SDS011;3504;52.616;13.238;2022-12-29T10:14:47;1.93;;;1.50;;
6928;SDS011;3504;52.616;13.238;2022-12-29T10:20:15;2.50;;;1.47;;
6928;SDS011;3504;52.616;13.238;2022-12-29T10:25:29;2.17;;;1.53;;
6928;SDS011;3504;52.616;13.238;2022-12-29T10:30:34;3.07;;;1.37;;
6928;SDS011;3504;52.616;13.238;2022-12-29T10:35:36;2.23;;;1.37;;
6928;SDS011;3504;52.616;13.238;2022-12-29T10:40:42;2.00;;;1.43;;
6928;SDS011;3504;52.616;13.238;2022-12-29T10:46:09;4.07;;;1.73;;
6928;SDS011;3504;52.616;13.238;2022-12-29T10:51:35;2.67;;;2.33;;
6928;SDS011;3504;52.616;13.238;2022-12-29T10:56:43;2.53;;;1.60;;
6928;SDS011;3504;52.616;13.238;2022-12-29T11:07:08;2.50;;;1.47;;
6928;SDS011;3504;52.616;13.238;2022-12-29T11:12:21;2.43;;;1.57;;
6928;SDS011;3504;52.616;13.238;2022-12-29T11:17:28;2.03;;;1.40;;
6928;SDS011;3504;52.616;13.238;2022-12-29T11:22:28;1.77;;;1.30;;
6928;SDS011;3504;52.616;13.238;2022-12-29T11:27:28;3.97;;;1.50;;
6928;SDS011;3504;52.616;13.238;2022-12-29T11:32:29;3.17;;;1.33;;
6928;SDS011;3504;52.616;13.238;2022-12-29T11:37:31;4.80;;;1.60;;
6928;SDS011;3504;52.616;13.238;2022-12-29T11:42:45;1.80;;;1.30;;
6928;SDS011;3504;52.616;13.238;2022-12-29T11:47:56;3.30;;;1.60;;
6928;SDS011;3504;52.616;13.238;2022-12-29T11:53:17;2.40;;;1.50;;
6928;SDS011;3504;52.616;13.238;2022-12-29T11:58:33;2.77;;;1.30;;
6928;SDS011;3504;52.616;13.238;2022-12-29T12:03:37;1.77;;;1.20;;
6928;SDS011;3504;52.616;13.238;2022-12-29T12:08:48;2.60;;;1.27;;
6928;SDS011;3504;52.616;13.238;2022-12-29T12:19:49;1.37;;;1.00;;
6928;SDS011;3504;52.616;13.238;2022-12-29T12:25:18;1.63;;;1.30;;
6928;SDS011;3504;52.616;13.238;2022-12-29T12:30:21;1.40;;;1.30;;
6928;SDS011;3504;52.616;13.238;2022-12-29T12:40:51;1.10;;;1.00;;
6928;SDS011;3504;52.616;13.238;2022-12-29T12:52:33;1.53;;;1.00;;
6928;SDS011;3504;52.616;13.238;2022-12-29T13:02:27;1.43;;;1.13;;
6928;SDS011;3504;52.616;13.238;2022-12-29T13:08:11;2.13;;;1.10;;
6928;SDS011;3504;52.616;13.238;2022-12-29T13:19:27;1.07;;;1.00;;
6928;SDS011;3504;52.616;13.238;2022-12-29T13:25:12;1.00;;;0.70;;
6928;SDS011;3504;52.616;13.238;2022-12-29T13:30:30;0.90;;;0.90;;
6928;SDS011;3504;52.616;13.238;2022-12-29T13:41:15;1.27;;;0.73;;
6928;SDS011;3504;52.616;13.238;2022-12-29T13:46:31;0.90;;;0.80;;
6928;SDS011;3504;52.616;13.238;2022-12-29T13:51:40;1.60;;;1.00;;
6928;SDS011;3504;52.616;13.238;2022-12-29T13:57:02;2.03;;;0.93;;
6928;SDS011;3504;52.616;13.238;2022-12-29T14:02:16;5.30;;;1.23;;
6928;SDS011;3504;52.616;13.238;2022-12-29T14:07:37;3.53;;;1.20;;
6928;SDS011;3504;52.616;13.238;2022-12-29T14:12:42;5.17;;;1.40;;
6928;SDS011;3504;52.616;13.238;2022-12-29T14:17:43;1.97;;;1.13;;
6928;SDS011;3504;52.616;13.238;2022-12-29T14:27:59;1.83;;;1.30;;
6928;SDS011;3504;52.616;13.238;2022-12-29T14:33:22;2.03;;;1.47;;
6928;SDS011;3504;52.616;13.238;2022-12-29T14:38:27;3.20;;;1.20;;
6928;SDS011;3504;52.616;13.238;2022-12-29T14:43:30;1.80;;;1.33;;
6928;SDS011;3504;52.616;13.238;2022-12-29T14:48:35;2.30;;;1.90;;
6928;SDS011;3504;52.616;13.238;2022-12-29T14:53:41;2.80;;;1.50;;
6928;SDS011;3504;52.616;13.238;2022-12-29T14:58:53;2.20;;;2.00;;
6928;SDS011;3504;52.616;13.238;2022-12-29T15:04:05;1.63;;;1.23;;
6928;SDS011;3504;52.616;13.238;2022-12-29T15:09:44;5.23;;;1.10;;
6928;SDS011;3504;52.616;13.238;2022-12-29T15:14:57;2.77;;;1.10;;
6928;SDS011;3504;52.616;13.238;2022-12-29T15:20:00;1.20;;;1.00;;
6928;SDS011;3504;52.616;13.238;2022-12-29T15:25:15;1.83;;;1.50;;
6928;SDS011;3504;52.616;13.238;2022-12-29T15:30:17;2.20;;;1.70;;
6928;SDS011;3504;52.616;13.238;2022-12-29T15:35:23;2.97;;;1.60;;
6928;SDS011;3504;52.616;13.238;2022-12-29T15:40:34;4.40;;;2.60;;
6928;SDS011;3504;52.616;13.238;2022-12-29T15:45:34;2.83;;;1.77;;
6928;SDS011;3504;52.616;13.238;2022-12-29T15:50:35;4.73;;;1.70;;
6928;SDS011;3504;52.616;13.238;2022-12-29T15:55:38;3.67;;;2.50;;
6928;SDS011;3504;52.616;13.238;2022-12-29T16:00:41;6.57;;;3.70;;
6928;SDS011;3504;52.616;13.238;2022-12-29T16:05:49;3.60;;;2.30;;
6928;SDS011;3504;52.616;13.238;2022-12-29T16:10:53;4.37;;;2.63;;
6928;SDS011;3504;52.616;13.238;2022-12-29T16:15:56;6.17;;;3.20;;
6928;SDS011;3504;52.616;13.238;2022-12-29T16:21:26;6.30;;;2.70;;
6928;SDS011;3504;52.616;13.238;2022-12-29T16:26:31;5.27;;;2.73;;
6928;SDS011;3504;52.616;13.238;2022-12-29T16:31:35;3.90;;;2.80;;
6928;SDS011;3504;52.616;13.238;2022-12-29T16:36:53;4.17;;;2.60;;
6928;SDS011;3504;52.616;13.238;2022-12-29T16:42:00;5.20;;;2.67;;
6928;SDS011;3504;52.616;13.238;2022-12-29T16:47:21;4.53;;;2.20;;
6928;SDS011;3504;52.616;13.238;2022-12-29T16:52:23;2.67;;;1.87;;
6928;SDS011;3504;52.616;13.238;2022-12-29T16:57:33;4.70;;;2.87;;
6928;SDS011;3504;52.616;13.238;2022-12-29T17:02:36;4.67;;;2.80;;
6928;SDS011;3504;52.616;13.238;2022-12-29T17:07:44;7.83;;;4.57;;
6928;SDS011;3504;52.616;13.238;2022-12-29T17:12:47;6.40;;;3.77;;
6928;SDS011;3504;52.616;13.238;2022-12-29T17:17:48;6.97;;;3.33;;
6928;SDS011;3504;52.616;13.238;2022-12-29T17:22:51;3.83;;;2.50;;
6928;SDS011;3504;52.616;13.238;2022-12-29T17:27:54;5.33;;;2.40;;
6928;SDS011;3504;52.616;13.238;2022-12-29T17:33:04;5.43;;;2.10;;
6928;SDS011;3504;52.616;13.238;2022-12-29T17:38:19;1.67;;;1.30;;
6928;SDS011;3504;52.616;13.238;2022-12-29T17:43:29;3.73;;;2.00;;
6928;SDS011;3504;52.616;13.238;2022-12-29T17:48:29;4.33;;;1.80;;
6928;SDS011;3504;52.616;13.238;2022-12-29T17:53:30;4.30;;;2.73;;
6928;SDS011;3504;52.616;13.238;2022-12-29T17:58:34;4.30;;;1.50;;
6928;SDS011;3504;52.616;13.238;2022-12-29T18:03:35;10.27;;;1.63;;
6928;SDS011;3504;52.616;13.238;2022-12-29T18:08:38;2.90;;;1.57;;
6928;SDS011;3504;52.616;13.238;2022-12-29T18:13:40;5.80;;;3.47;;
6928;SDS011;3504;52.616;13.238;2022-12-29T18:18:40;7.63;;;3.53;;
6928;SDS011;3504;52.616;13.238;2022-12-29T18:23:43;7.27;;;2.97;;
6928;SDS011;3504;52.616;13.238;2022-12-29T18:28:44;13.90;;;5.47;;
6928;SDS011;3504;52.616;13.238;2022-12-29T18:33:48;8.67;;;3.73;;
6928;SDS011;3504;52.616;13.238;2022-12-29T18:38:50;6.30;;;2.57;;
6928;SDS011;3504;52.616;13.238;2022-12-29T18:43:53;11.73;;;6.33;;
6928;SDS011;3504;52.616;13.238;2022-12-29T18:48:54;8.00;;;3.17;;
6928;SDS011;3504;52.616;13.238;2022-12-29T18:53:54;6.13;;;3.40;;
6928;SDS011;3504;52.616;13.238;2022-12-29T18:58:55;3.57;;;2.03;;
6928;SDS011;3504;52.616;13.238;2022-12-29T19:03:56;5.60;;;2.17;;
6928;SDS011;3504;52.616;13.238;2022-12-29T19:08:56;4.63;;;2.30;;
6928;SDS011;3504;52.616;13.238;2022-12-29T19:13:57;4.17;;;1.47;;
6928;SDS011;3504;52.616;13.238;2022-12-29T19:18:57;5.93;;;2.07;;
6928;SDS011;3504;52.616;13.238;2022-12-29T19:24:00;4.27;;;1.67;;
6928;SDS011;3504;52.616;13.238;2022-12-29T19:29:01;4.97;;;2.00;;
6928;SDS011;3504;52.616;13.238;2022-12-29T19:34:02;3.03;;;1.83;;
6928;SDS011;3504;52.616;13.238;2022-12-29T19:39:03;5.67;;;1.87;;
6928;SDS011;3504;52.616;13.238;2022-12-29T19:44:03;3.97;;;2.10;;
6928;SDS011;3504;52.616;13.238;2022-12-29T19:49:04;5.73;;;2.73;;
6928;SDS011;3504;52.616;13.238;2022-12-29T19:54:04;4.50;;;1.73;;
6928;SDS011;3504;52.616;13.238;2022-12-29T19:59:05;1.90;;;1.50;;
6928;SDS011;3504;52.616;13.238;2022-12-29T20:04:05;4.53;;;1.90;;
6928;SDS011;3504;52.616;13.238;2022-12-29T20:09:06;5.97;;;2.50;;
6928;SDS011;3504;52.616;13.238;2022-12-29T20:14:06;6.57;;;2.50;;
6928;SDS011;3504;52.616;13.238;2022-12-29T20:19:07;3.17;;;2.17;;
6928;SDS011;3504;52.616;13.238;2022-12-29T20:24:07;4.30;;;2.53;;
6928;SDS011;3504;52.616;13.238;2022-12-29T20:29:08;3.97;;;2.37;;
6928;SDS011;3504;52.616;13.238;2022-12-29T20:34:08;3.63;;;2.20;;
6928;SDS011;3504;52.616;13.238;2022-12-29T20:39:11;4.77;;;2.20;;
6928;SDS011;3504;52.616;13.238;2022-12-29T20:44:15;4.43;;;2.30;;
6928;SDS011;3504;52.616;13.238;2022-12-29T20:49:16;3.97;;;2.27;;
6928;SDS011;3504;52.616;13.238;2022-12-29T20:54:17;5.43;;;2.67;;
6928;SDS011;3504;52.616;13.238;2022-12-29T20:59:18;4.30;;;2.30;;
6928;SDS011;3504;52.616;13.238;2022-12-29T21:04:18;3.80;;;2.00;;
6928;SDS011;3504;52.616;13.238;2022-12-29T21:09:19;3.40;;;2.00;;
6928;SDS011;3504;52.616;13.238;2022-12-29T21:14:19;4.30;;;1.80;;
6928;SDS011;3504;52.616;13.238;2022-12-29T21:19:20;4.43;;;2.00;;
6928;SDS011;3504;52.616;13.238;2022-12-29T21:24:20;4.47;;;1.60;;
6928;SDS011;3504;52.616;13.238;2022-12-29T21:29:21;4.10;;;1.80;;
6928;SDS011;3504;52.616;13.238;2022-12-29T21:34:21;3.53;;;1.97;;
6928;SDS011;3504;52.616;13.238;2022-12-29T21:39:22;3.07;;;1.63;;
6928;SDS011;3504;52.616;13.238;2022-12-29T21:44:23;2.50;;;1.70;;
6928;SDS011;3504;52.616;13.238;2022-12-29T21:49:55;5.90;;;1.73;;
6928;SDS011;3504;52.616;13.238;2022-12-29T21:54:55;3.60;;;1.30;;
6928;SDS011;3504;52.616;13.238;2022-12-29T21:59:59;5.47;;;1.73;;
6928;SDS011;3504;52.616;13.238;2022-12-29T22:05:18;5.77;;;1.73;;
6928;SDS011;3504;52.616;13.238;2022-12-29T22:10:37;4.40;;;1.67;;
6928;SDS011;3504;52.616;13.238;2022-12-29T22:16:01;3.60;;;1.77;;
6928;SDS011;3504;52.616;13.238;2022-12-29T22:21:03;5.63;;;1.60;;
6928;SDS011;3504;52.616;13.238;2022-12-29T22:26:07;5.53;;;1.63;;
6928;SDS011;3504;52.616;13.238;2022-12-29T22:31:22;3.00;;;1.30;;
6928;SDS011;3504;52.616;13.238;2022-12-29T22:36:28;3.70;;;1.77;;
6928;SDS011;3504;52.616;13.238;2022-12-29T22:41:31;3.97;;;1.23;;
6928;SDS011;3504;52.616;13.238;2022-12-29T22:46:31;3.47;;;1.50;;
6928;SDS011;3504;52.616;13.238;2022-12-29T22:51:32;3.37;;;1.40;;
6928;SDS011;3504;52.616;13.238;2022-12-29T22:56:32;5.20;;;1.70;;
6928;SDS011;3504;52.616;13.238;2022-12-29T23:01:40;3.67;;;1.53;;
6928;SDS011;3504;52.616;13.238;2022-12-29T23:06:41;4.67;;;1.37;;
6928;SDS011;3504;52.616;13.238;2022-12-29T23:11:42;3.43;;;1.20;;
6928;SDS011;3504;52.616;13.238;2022-12-29T23:16:43;2.17;;;1.10;;
6928;SDS011;3504;52.616;13.238;2022-12-29T23:21:43;3.47;;;1.23;;
6928;SDS011;3504;52.616;13.238;2022-12-29T23:26:47;5.57;;;1.50;;
6928;SDS011;3504;52.616;13.238;2022-12-29T23:31:47;3.57;;;1.50;;
6928;SDS011;3504;52.616;13.238;2022-12-29T23:36:48;3.63;;;1.20;;
6928;SDS011;3504;52.616;13.238;2022-12-29T23:41:50;3.20;;;1.30;;
6928;SDS011;3504;52.616;13.238;2022-12-29T23:46:51;2.70;;;1.40;;
6928;SDS011;3504;52.616;13.238;2022-12-29T23:51:51;2.80;;;1.30;;
6928;SDS011;3504;52.616;13.238;2022-12-29T23:56:52;4.67;;;1.77;;
